sensor_id;sensor_type;location;lat;lon;timestamp;P1;durP1;ratioP1;P2;durP2;ratioP2
59876;SDS011;74472;51.140;17.184;2024-01-15T00:01:59;11.20;;;6.78;;
59876;SDS011;74472;51.140;17.184;2024-01-15T00:04:24;9.98;;;6.35;;
59876;SDS011;74472;51.140;17.184;2024-01-15T00:06:50;9.70;;;7.65;;
59876;SDS011;74472;51.140;17.184;2024-01-15T00:09:15;11.13;;;6.97;;
59876;SDS011;74472;51.140;17.184;2024-01-15T00:11:41;11.80;;;6.30;;
59876;SDS011;74472;51.140;17.184;2024-01-15T00:14:08;12.02;;;8.00;;
59876;SDS011;74472;51.140;17.184;2024-01-15T00:16:33;17.17;;;9.50;;
59876;SDS011;74472;51.140;17.184;2024-01-15T00:37:45;33.08;;;17.27;;
59876;SDS011;74472;51.140;17.184;2024-01-15T00:40:10;90.22;;;35.97;;
59876;SDS011;74472;51.140;17.184;2024-01-15T00:42:35;40.65;;;19.02;;
59876;SDS011;74472;51.140;17.184;2024-01-15T00:45:01;33.65;;;12.52;;
59876;SDS011;74472;51.140;17.184;2024-01-15T00:47:26;20.15;;;10.23;;
59876;SDS011;74472;51.140;17.184;2024-01-15T00:49:52;13.25;;;8.38;;
59876;SDS011;74472;51.140;17.184;2024-01-15T00:52:17;14.90;;;8.35;;
59876;SDS011;74472;51.140;17.184;2024-01-15T00:54:42;14.98;;;7.68;;
59876;SDS011;74472;51.140;17.184;2024-01-15T00:57:07;17.38;;;10.52;;
59876;SDS011;74472;51.140;17.184;2024-01-15T00:59:33;13.80;;;8.27;;
59876;SDS011;74472;51.140;17.184;2024-01-15T01:01:58;11.95;;;7.53;;
59876;SDS011;74472;51.140;17.184;2024-01-15T01:04:23;14.23;;;7.53;;
59876;SDS011;74472;51.140;17.184;2024-01-15T01:06:49;13.02;;;8.07;;
59876;SDS011;74472;51.140;17.184;2024-01-15T01:09:14;13.05;;;8.02;;
59876;SDS011;74472;51.140;17.184;2024-01-15T01:11:39;13.57;;;8.65;;
59876;SDS011;74472;51.140;17.184;2024-01-15T01:14:05;15.27;;;8.27;;
59876;SDS011;74472;51.140;17.184;2024-01-15T01:16:30;14.35;;;9.02;;
59876;SDS011;74472;51.140;17.184;2024-01-15T01:18:56;14.20;;;7.53;;
59876;SDS011;74472;51.140;17.184;2024-01-15T01:21:21;11.50;;;7.10;;
59876;SDS011;74472;51.140;17.184;2024-01-15T01:23:47;14.52;;;7.47;;
59876;SDS011;74472;51.140;17.184;2024-01-15T01:26:15;11.25;;;7.70;;
59876;SDS011;74472;51.140;17.184;2024-01-15T01:28:40;10.73;;;7.38;;
59876;SDS011;74472;51.140;17.184;2024-01-15T01:31:06;12.48;;;9.45;;
59876;SDS011;74472;51.140;17.184;2024-01-15T01:33:31;12.85;;;9.07;;
59876;SDS011;74472;51.140;17.184;2024-01-15T01:35:56;11.27;;;7.65;;
59876;SDS011;74472;51.140;17.184;2024-01-15T01:38:22;13.05;;;7.63;;
59876;SDS011;74472;51.140;17.184;2024-01-15T01:40:47;14.15;;;7.53;;
59876;SDS011;74472;51.140;17.184;2024-01-15T01:43:12;10.45;;;7.10;;
59876;SDS011;74472;51.140;17.184;2024-01-15T01:45:37;13.32;;;7.13;;
59876;SDS011;74472;51.140;17.184;2024-01-15T01:48:03;11.82;;;7.78;;
59876;SDS011;74472;51.140;17.184;2024-01-15T01:50:29;10.20;;;6.97;;
59876;SDS011;74472;51.140;17.184;2024-01-15T01:52:56;11.27;;;6.85;;
59876;SDS011;74472;51.140;17.184;2024-01-15T01:55:22;8.52;;;5.93;;
59876;SDS011;74472;51.140;17.184;2024-01-15T01:57:51;9.80;;;6.35;;
59876;SDS011;74472;51.140;17.184;2024-01-15T02:00:16;13.57;;;7.18;;
59876;SDS011;74472;51.140;17.184;2024-01-15T02:02:42;19.65;;;10.65;;
59876;SDS011;74472;51.140;17.184;2024-01-15T02:05:08;10.52;;;7.30;;
59876;SDS011;74472;51.140;17.184;2024-01-15T02:07:34;15.55;;;8.38;;
59876;SDS011;74472;51.140;17.184;2024-01-15T02:09:59;12.57;;;7.05;;
59876;SDS011;74472;51.140;17.184;2024-01-15T02:12:25;10.70;;;7.22;;
59876;SDS011;74472;51.140;17.184;2024-01-15T02:14:50;10.95;;;6.25;;
59876;SDS011;74472;51.140;17.184;2024-01-15T02:17:15;11.73;;;7.30;;
59876;SDS011;74472;51.140;17.184;2024-01-15T02:19:41;11.05;;;7.30;;
59876;SDS011;74472;51.140;17.184;2024-01-15T02:22:06;10.93;;;6.78;;
59876;SDS011;74472;51.140;17.184;2024-01-15T02:24:31;9.65;;;7.07;;
59876;SDS011;74472;51.140;17.184;2024-01-15T02:26:57;10.50;;;6.45;;
59876;SDS011;74472;51.140;17.184;2024-01-15T02:29:22;12.23;;;7.63;;
59876;SDS011;74472;51.140;17.184;2024-01-15T02:31:48;11.55;;;7.57;;
59876;SDS011;74472;51.140;17.184;2024-01-15T02:34:13;10.43;;;6.88;;
59876;SDS011;74472;51.140;17.184;2024-01-15T02:36:38;9.75;;;7.05;;
59876;SDS011;74472;51.140;17.184;2024-01-15T02:39:03;10.25;;;6.10;;
59876;SDS011;74472;51.140;17.184;2024-01-15T02:41:29;10.07;;;7.22;;
59876;SDS011;74472;51.140;17.184;2024-01-15T02:43:54;11.45;;;7.18;;
59876;SDS011;74472;51.140;17.184;2024-01-15T02:46:19;10.70;;;7.85;;
59876;SDS011;74472;51.140;17.184;2024-01-15T02:48:45;12.48;;;8.05;;
59876;SDS011;74472;51.140;17.184;2024-01-15T02:51:10;11.02;;;7.47;;
59876;SDS011;74472;51.140;17.184;2024-01-15T02:53:36;14.18;;;7.68;;
59876;SDS011;74472;51.140;17.184;2024-01-15T02:56:02;10.25;;;6.57;;
59876;SDS011;74472;51.140;17.184;2024-01-15T02:58:28;10.90;;;7.60;;
59876;SDS011;74472;51.140;17.184;2024-01-15T03:00:53;14.20;;;8.07;;
59876;SDS011;74472;51.140;17.184;2024-01-15T03:03:18;12.43;;;8.50;;
59876;SDS011;74472;51.140;17.184;2024-01-15T03:05:43;11.10;;;7.38;;
59876;SDS011;74472;51.140;17.184;2024-01-15T03:08:09;9.45;;;7.10;;
59876;SDS011;74472;51.140;17.184;2024-01-15T03:10:34;11.48;;;6.72;;
59876;SDS011;74472;51.140;17.184;2024-01-15T03:12:59;12.02;;;7.18;;
59876;SDS011;74472;51.140;17.184;2024-01-15T03:15:24;11.05;;;6.80;;
59876;SDS011;74472;51.140;17.184;2024-01-15T03:17:50;11.55;;;6.88;;
59876;SDS011;74472;51.140;17.184;2024-01-15T03:20:15;12.63;;;8.10;;
59876;SDS011;74472;51.140;17.184;2024-01-15T03:22:40;11.55;;;7.10;;
59876;SDS011;74472;51.140;17.184;2024-01-15T03:25:06;9.27;;;6.40;;
59876;SDS011;74472;51.140;17.184;2024-01-15T03:27:32;11.35;;;6.40;;
59876;SDS011;74472;51.140;17.184;2024-01-15T03:29:57;9.85;;;6.90;;
59876;SDS011;74472;51.140;17.184;2024-01-15T03:32:23;9.18;;;6.40;;
59876;SDS011;74472;51.140;17.184;2024-01-15T03:34:48;9.68;;;6.13;;
59876;SDS011;74472;51.140;17.184;2024-01-15T03:37:13;8.27;;;4.85;;
59876;SDS011;74472;51.140;17.184;2024-01-15T03:39:39;8.50;;;5.82;;
59876;SDS011;74472;51.140;17.184;2024-01-15T03:42:04;8.57;;;5.80;;
59876;SDS011;74472;51.140;17.184;2024-01-15T03:44:29;8.32;;;5.60;;
59876;SDS011;74472;51.140;17.184;2024-01-15T03:46:55;6.20;;;4.53;;
59876;SDS011;74472;51.140;17.184;2024-01-15T03:49:20;9.40;;;5.20;;
59876;SDS011;74472;51.140;17.184;2024-01-15T03:51:45;7.35;;;4.50;;
59876;SDS011;74472;51.140;17.184;2024-01-15T03:54:11;6.75;;;4.47;;
59876;SDS011;74472;51.140;17.184;2024-01-15T03:56:36;7.10;;;4.63;;
59876;SDS011;74472;51.140;17.184;2024-01-15T03:59:01;5.72;;;4.30;;
59876;SDS011;74472;51.140;17.184;2024-01-15T04:01:27;6.20;;;3.70;;
59876;SDS011;74472;51.140;17.184;2024-01-15T04:03:52;6.20;;;4.50;;
59876;SDS011;74472;51.140;17.184;2024-01-15T04:06:18;7.45;;;4.32;;
59876;SDS011;74472;51.140;17.184;2024-01-15T04:08:43;9.73;;;4.63;;
59876;SDS011;74472;51.140;17.184;2024-01-15T04:11:08;7.75;;;4.85;;
59876;SDS011;74472;51.140;17.184;2024-01-15T04:13:33;9.57;;;5.38;;
59876;SDS011;74472;51.140;17.184;2024-01-15T04:15:59;9.15;;;5.43;;
59876;SDS011;74472;51.140;17.184;2024-01-15T04:18:25;8.20;;;4.65;;
59876;SDS011;74472;51.140;17.184;2024-01-15T04:20:50;11.98;;;6.47;;
59876;SDS011;74472;51.140;17.184;2024-01-15T04:23:15;7.68;;;4.90;;
59876;SDS011;74472;51.140;17.184;2024-01-15T04:25:41;7.22;;;4.25;;
59876;SDS011;74472;51.140;17.184;2024-01-15T04:28:07;6.97;;;4.32;;
59876;SDS011;74472;51.140;17.184;2024-01-15T04:30:33;6.07;;;3.95;;
59876;SDS011;74472;51.140;17.184;2024-01-15T04:32:59;6.63;;;4.60;;
59876;SDS011;74472;51.140;17.184;2024-01-15T04:35:24;6.55;;;3.90;;
59876;SDS011;74472;51.140;17.184;2024-01-15T04:37:49;7.95;;;4.25;;
59876;SDS011;74472;51.140;17.184;2024-01-15T04:40:15;12.70;;;6.07;;
59876;SDS011;74472;51.140;17.184;2024-01-15T04:42:40;6.38;;;4.28;;
59876;SDS011;74472;51.140;17.184;2024-01-15T04:45:05;9.90;;;5.18;;
59876;SDS011;74472;51.140;17.184;2024-01-15T04:47:31;8.52;;;4.60;;
59876;SDS011;74472;51.140;17.184;2024-01-15T04:49:56;9.50;;;4.53;;
59876;SDS011;74472;51.140;17.184;2024-01-15T04:52:21;9.32;;;5.78;;
59876;SDS011;74472;51.140;17.184;2024-01-15T04:54:46;9.60;;;4.90;;
59876;SDS011;74472;51.140;17.184;2024-01-15T04:57:12;10.13;;;5.18;;
59876;SDS011;74472;51.140;17.184;2024-01-15T04:59:37;8.27;;;5.28;;
59876;SDS011;74472;51.140;17.184;2024-01-15T05:02:02;9.30;;;6.35;;
59876;SDS011;74472;51.140;17.184;2024-01-15T05:04:28;8.52;;;5.03;;
59876;SDS011;74472;51.140;17.184;2024-01-15T05:06:53;10.80;;;6.63;;
59876;SDS011;74472;51.140;17.184;2024-01-15T05:09:20;11.18;;;7.07;;
59876;SDS011;74472;51.140;17.184;2024-01-15T05:11:45;8.98;;;5.70;;
59876;SDS011;74472;51.140;17.184;2024-01-15T05:14:11;11.50;;;6.65;;
59876;SDS011;74472;51.140;17.184;2024-01-15T05:16:39;9.50;;;5.93;;
59876;SDS011;74472;51.140;17.184;2024-01-15T05:19:11;10.85;;;5.57;;
59876;SDS011;74472;51.140;17.184;2024-01-15T05:21:36;10.20;;;5.70;;
59876;SDS011;74472;51.140;17.184;2024-01-15T05:24:02;8.48;;;4.85;;
59876;SDS011;74472;51.140;17.184;2024-01-15T05:26:27;11.77;;;6.20;;
59876;SDS011;74472;51.140;17.184;2024-01-15T05:28:52;11.73;;;6.40;;
59876;SDS011;74472;51.140;17.184;2024-01-15T05:31:17;9.80;;;6.10;;
59876;SDS011;74472;51.140;17.184;2024-01-15T05:33:43;13.73;;;7.35;;
59876;SDS011;74472;51.140;17.184;2024-01-15T05:36:08;11.63;;;6.22;;
59876;SDS011;74472;51.140;17.184;2024-01-15T05:38:33;11.52;;;6.07;;
59876;SDS011;74472;51.140;17.184;2024-01-15T05:40:59;7.90;;;4.97;;
59876;SDS011;74472;51.140;17.184;2024-01-15T05:43:24;8.85;;;5.97;;
59876;SDS011;74472;51.140;17.184;2024-01-15T05:45:49;6.88;;;4.60;;
59876;SDS011;74472;51.140;17.184;2024-01-15T05:48:15;7.68;;;5.05;;
59876;SDS011;74472;51.140;17.184;2024-01-15T05:50:41;6.97;;;3.75;;
59876;SDS011;74472;51.140;17.184;2024-01-15T05:53:06;7.65;;;4.75;;
59876;SDS011;74472;51.140;17.184;2024-01-15T05:55:31;7.75;;;5.55;;
59876;SDS011;74472;51.140;17.184;2024-01-15T05:57:57;11.50;;;6.35;;
59876;SDS011;74472;51.140;17.184;2024-01-15T06:00:22;10.25;;;5.72;;
59876;SDS011;74472;51.140;17.184;2024-01-15T06:02:47;8.85;;;5.53;;
59876;SDS011;74472;51.140;17.184;2024-01-15T06:05:13;8.32;;;5.25;;
59876;SDS011;74472;51.140;17.184;2024-01-15T06:07:38;10.75;;;5.82;;
59876;SDS011;74472;51.140;17.184;2024-01-15T06:10:06;8.48;;;5.25;;
59876;SDS011;74472;51.140;17.184;2024-01-15T06:12:32;9.98;;;4.57;;
59876;SDS011;74472;51.140;17.184;2024-01-15T06:14:58;10.88;;;6.13;;
59876;SDS011;74472;51.140;17.184;2024-01-15T06:17:27;9.10;;;5.60;;
59876;SDS011;74472;51.140;17.184;2024-01-15T06:19:56;10.10;;;5.20;;
59876;SDS011;74472;51.140;17.184;2024-01-15T06:22:22;10.23;;;5.70;;
59876;SDS011;74472;51.140;17.184;2024-01-15T06:24:47;10.05;;;5.20;;
59876;SDS011;74472;51.140;17.184;2024-01-15T06:27:12;8.63;;;5.15;;
59876;SDS011;74472;51.140;17.184;2024-01-15T06:29:38;7.90;;;4.70;;
59876;SDS011;74472;51.140;17.184;2024-01-15T06:32:04;8.80;;;4.55;;
59876;SDS011;74472;51.140;17.184;2024-01-15T06:34:29;8.05;;;4.72;;
59876;SDS011;74472;51.140;17.184;2024-01-15T06:36:54;7.90;;;4.22;;
59876;SDS011;74472;51.140;17.184;2024-01-15T06:39:20;6.70;;;4.45;;
59876;SDS011;74472;51.140;17.184;2024-01-15T06:41:45;10.27;;;5.93;;
59876;SDS011;74472;51.140;17.184;2024-01-15T06:44:11;7.72;;;5.18;;
59876;SDS011;74472;51.140;17.184;2024-01-15T06:46:36;7.15;;;5.05;;
59876;SDS011;74472;51.140;17.184;2024-01-15T06:49:02;8.82;;;4.90;;
59876;SDS011;74472;51.140;17.184;2024-01-15T06:51:28;8.15;;;4.93;;
59876;SDS011;74472;51.140;17.184;2024-01-15T06:53:54;9.88;;;5.82;;
59876;SDS011;74472;51.140;17.184;2024-01-15T06:56:19;9.98;;;6.07;;
59876;SDS011;74472;51.140;17.184;2024-01-15T06:58:44;9.07;;;5.60;;
59876;SDS011;74472;51.140;17.184;2024-01-15T07:01:10;9.50;;;5.70;;
59876;SDS011;74472;51.140;17.184;2024-01-15T07:03:35;8.35;;;5.78;;
59876;SDS011;74472;51.140;17.184;2024-01-15T07:06:00;10.10;;;5.93;;
59876;SDS011;74472;51.140;17.184;2024-01-15T07:08:26;8.70;;;4.47;;
59876;SDS011;74472;51.140;17.184;2024-01-15T07:10:51;10.18;;;5.07;;
59876;SDS011;74472;51.140;17.184;2024-01-15T07:13:17;6.80;;;4.25;;
59876;SDS011;74472;51.140;17.184;2024-01-15T07:15:42;8.23;;;4.97;;
59876;SDS011;74472;51.140;17.184;2024-01-15T07:18:07;9.18;;;5.47;;
59876;SDS011;74472;51.140;17.184;2024-01-15T07:20:33;9.15;;;5.20;;
59876;SDS011;74472;51.140;17.184;2024-01-15T07:22:58;8.85;;;5.93;;
59876;SDS011;74472;51.140;17.184;2024-01-15T07:25:24;9.77;;;6.05;;
59876;SDS011;74472;51.140;17.184;2024-01-15T07:27:51;9.63;;;5.75;;
59876;SDS011;74472;51.140;17.184;2024-01-15T07:30:16;8.60;;;5.68;;
59876;SDS011;74472;51.140;17.184;2024-01-15T07:32:42;9.50;;;5.85;;
59876;SDS011;74472;51.140;17.184;2024-01-15T07:35:07;9.35;;;5.53;;
59876;SDS011;74472;51.140;17.184;2024-01-15T07:37:33;9.20;;;5.82;;
59876;SDS011;74472;51.140;17.184;2024-01-15T07:39:58;9.15;;;5.07;;
59876;SDS011;74472;51.140;17.184;2024-01-15T07:42:24;9.68;;;4.57;;
59876;SDS011;74472;51.140;17.184;2024-01-15T07:44:49;9.77;;;5.03;;
59876;SDS011;74472;51.140;17.184;2024-01-15T07:47:16;7.55;;;4.90;;
59876;SDS011;74472;51.140;17.184;2024-01-15T07:49:42;9.40;;;5.28;;
59876;SDS011;74472;51.140;17.184;2024-01-15T07:52:07;8.95;;;4.88;;
59876;SDS011;74472;51.140;17.184;2024-01-15T07:54:32;6.75;;;4.35;;
59876;SDS011;74472;51.140;17.184;2024-01-15T07:57:02;10.60;;;5.28;;
59876;SDS011;74472;51.140;17.184;2024-01-15T08:01:57;8.90;;;5.00;;
59876;SDS011;74472;51.140;17.184;2024-01-15T08:04:23;9.60;;;5.05;;
59876;SDS011;74472;51.140;17.184;2024-01-15T08:06:49;11.30;;;6.35;;
59876;SDS011;74472;51.140;17.184;2024-01-15T08:09:14;7.45;;;4.70;;
59876;SDS011;74472;51.140;17.184;2024-01-15T08:11:40;7.07;;;3.92;;
59876;SDS011;74472;51.140;17.184;2024-01-15T08:14:06;8.35;;;4.95;;
59876;SDS011;74472;51.140;17.184;2024-01-15T08:16:32;8.65;;;5.30;;
59876;SDS011;74472;51.140;17.184;2024-01-15T08:18:57;8.50;;;4.50;;
59876;SDS011;74472;51.140;17.184;2024-01-15T08:21:22;8.43;;;4.60;;
59876;SDS011;74472;51.140;17.184;2024-01-15T08:23:47;7.90;;;5.45;;
59876;SDS011;74472;51.140;17.184;2024-01-15T08:26:13;6.88;;;3.92;;
59876;SDS011;74472;51.140;17.184;2024-01-15T08:28:38;6.05;;;4.38;;
59876;SDS011;74472;51.140;17.184;2024-01-15T08:31:03;10.85;;;5.90;;
59876;SDS011;74472;51.140;17.184;2024-01-15T08:33:29;8.48;;;4.68;;
59876;SDS011;74472;51.140;17.184;2024-01-15T08:35:54;9.65;;;5.18;;
59876;SDS011;74472;51.140;17.184;2024-01-15T08:38:20;7.00;;;4.55;;
59876;SDS011;74472;51.140;17.184;2024-01-15T08:40:45;10.30;;;5.57;;
59876;SDS011;74472;51.140;17.184;2024-01-15T08:43:10;8.10;;;4.28;;
59876;SDS011;74472;51.140;17.184;2024-01-15T08:45:36;8.30;;;4.53;;
59876;SDS011;74472;51.140;17.184;2024-01-15T08:48:01;8.77;;;4.50;;
59876;SDS011;74472;51.140;17.184;2024-01-15T08:50:27;10.13;;;4.78;;
59876;SDS011;74472;51.140;17.184;2024-01-15T08:52:52;8.32;;;3.78;;
59876;SDS011;74472;51.140;17.184;2024-01-15T08:55:18;6.68;;;4.15;;
59876;SDS011;74472;51.140;17.184;2024-01-15T08:57:43;6.38;;;3.60;;
59876;SDS011;74472;51.140;17.184;2024-01-15T09:00:09;6.30;;;3.70;;
59876;SDS011;74472;51.140;17.184;2024-01-15T09:02:34;8.88;;;3.80;;
59876;SDS011;74472;51.140;17.184;2024-01-15T09:05:00;7.35;;;4.10;;
59876;SDS011;74472;51.140;17.184;2024-01-15T09:07:26;8.07;;;3.90;;
59876;SDS011;74472;51.140;17.184;2024-01-15T09:09:52;7.22;;;4.38;;
59876;SDS011;74472;51.140;17.184;2024-01-15T09:12:17;7.82;;;3.75;;
59876;SDS011;74472;51.140;17.184;2024-01-15T09:14:45;10.00;;;4.47;;
59876;SDS011;74472;51.140;17.184;2024-01-15T09:17:11;10.02;;;4.75;;
59876;SDS011;74472;51.140;17.184;2024-01-15T09:19:36;7.10;;;3.38;;
59876;SDS011;74472;51.140;17.184;2024-01-15T09:22:01;5.28;;;3.42;;
59876;SDS011;74472;51.140;17.184;2024-01-15T09:24:27;8.60;;;3.55;;
59876;SDS011;74472;51.140;17.184;2024-01-15T09:26:52;5.78;;;3.97;;
59876;SDS011;74472;51.140;17.184;2024-01-15T09:29:17;9.65;;;4.78;;
59876;SDS011;74472;51.140;17.184;2024-01-15T09:31:43;6.32;;;3.80;;
59876;SDS011;74472;51.140;17.184;2024-01-15T09:34:08;9.93;;;4.90;;
59876;SDS011;74472;51.140;17.184;2024-01-15T09:36:39;14.45;;;5.88;;
59876;SDS011;74472;51.140;17.184;2024-01-15T09:39:06;16.10;;;6.35;;
59876;SDS011;74472;51.140;17.184;2024-01-15T09:41:33;11.70;;;7.95;;
59876;SDS011;74472;51.140;17.184;2024-01-15T09:44:00;12.45;;;6.72;;
59876;SDS011;74472;51.140;17.184;2024-01-15T09:46:27;8.30;;;4.88;;
59876;SDS011;74472;51.140;17.184;2024-01-15T09:48:52;10.45;;;4.30;;
59876;SDS011;74472;51.140;17.184;2024-01-15T09:51:18;13.98;;;5.95;;
59876;SDS011;74472;51.140;17.184;2024-01-15T09:53:44;19.75;;;8.15;;
59876;SDS011;74472;51.140;17.184;2024-01-15T09:56:11;14.35;;;7.93;;
59876;SDS011;74472;51.140;17.184;2024-01-15T09:58:37;10.23;;;4.15;;
59876;SDS011;74472;51.140;17.184;2024-01-15T10:01:04;9.30;;;5.40;;
59876;SDS011;74472;51.140;17.184;2024-01-15T10:03:29;12.18;;;7.70;;
59876;SDS011;74472;51.140;17.184;2024-01-15T10:05:55;5.75;;;4.07;;
59876;SDS011;74472;51.140;17.184;2024-01-15T10:08:22;9.43;;;3.65;;
59876;SDS011;74472;51.140;17.184;2024-01-15T10:10:48;7.60;;;4.03;;
59876;SDS011;74472;51.140;17.184;2024-01-15T10:13:14;10.48;;;3.83;;
59876;SDS011;74472;51.140;17.184;2024-01-15T10:15:40;8.43;;;3.70;;
59876;SDS011;74472;51.140;17.184;2024-01-15T10:18:05;6.78;;;2.80;;
59876;SDS011;74472;51.140;17.184;2024-01-15T10:20:33;12.50;;;5.57;;
59876;SDS011;74472;51.140;17.184;2024-01-15T10:22:59;8.73;;;3.88;;
59876;SDS011;74472;51.140;17.184;2024-01-15T10:25:24;7.78;;;3.88;;
59876;SDS011;74472;51.140;17.184;2024-01-15T10:28:00;10.98;;;5.32;;
59876;SDS011;74472;51.140;17.184;2024-01-15T10:30:27;7.22;;;4.40;;
59876;SDS011;74472;51.140;17.184;2024-01-15T10:32:59;9.52;;;4.68;;
59876;SDS011;74472;51.140;17.184;2024-01-15T10:35:29;7.80;;;3.88;;
59876;SDS011;74472;51.140;17.184;2024-01-15T10:37:56;8.68;;;4.55;;
59876;SDS011;74472;51.140;17.184;2024-01-15T10:40:21;6.80;;;4.00;;
59876;SDS011;74472;51.140;17.184;2024-01-15T10:42:46;8.23;;;4.65;;
59876;SDS011;74472;51.140;17.184;2024-01-15T10:45:12;6.55;;;3.42;;
59876;SDS011;74472;51.140;17.184;2024-01-15T10:47:41;6.80;;;2.78;;
59876;SDS011;74472;51.140;17.184;2024-01-15T10:50:07;4.97;;;2.50;;
59876;SDS011;74472;51.140;17.184;2024-01-15T10:52:35;6.97;;;3.30;;
59876;SDS011;74472;51.140;17.184;2024-01-15T10:55:01;9.38;;;4.00;;
59876;SDS011;74472;51.140;17.184;2024-01-15T10:57:28;7.70;;;3.50;;
59876;SDS011;74472;51.140;17.184;2024-01-15T10:59:54;5.75;;;2.88;;
59876;SDS011;74472;51.140;17.184;2024-01-15T11:02:19;7.80;;;3.40;;
59876;SDS011;74472;51.140;17.184;2024-01-15T11:04:45;6.43;;;3.30;;
59876;SDS011;74472;51.140;17.184;2024-01-15T11:07:10;8.25;;;4.25;;
59876;SDS011;74472;51.140;17.184;2024-01-15T11:09:36;8.15;;;3.65;;
59876;SDS011;74472;51.140;17.184;2024-01-15T11:14:45;5.95;;;3.60;;
59876;SDS011;74472;51.140;17.184;2024-01-15T11:17:14;10.05;;;3.63;;
59876;SDS011;74472;51.140;17.184;2024-01-15T11:22:09;5.95;;;3.08;;
59876;SDS011;74472;51.140;17.184;2024-01-15T11:24:37;8.65;;;3.80;;
59876;SDS011;74472;51.140;17.184;2024-01-15T11:27:03;8.30;;;4.20;;
59876;SDS011;74472;51.140;17.184;2024-01-15T11:29:33;10.07;;;3.83;;
59876;SDS011;74472;51.140;17.184;2024-01-15T11:32:00;5.80;;;3.20;;
59876;SDS011;74472;51.140;17.184;2024-01-15T11:37:22;6.80;;;3.50;;
59876;SDS011;74472;51.140;17.184;2024-01-15T11:39:50;4.93;;;2.88;;
59876;SDS011;74472;51.140;17.184;2024-01-15T11:42:16;7.00;;;3.50;;
59876;SDS011;74472;51.140;17.184;2024-01-15T11:44:43;8.60;;;4.10;;
59876;SDS011;74472;51.140;17.184;2024-01-15T11:47:10;7.60;;;3.10;;
59876;SDS011;74472;51.140;17.184;2024-01-15T11:49:57;6.82;;;2.90;;
59876;SDS011;74472;51.140;17.184;2024-01-15T11:52:34;6.95;;;3.38;;
59876;SDS011;74472;51.140;17.184;2024-01-15T11:55:11;7.82;;;3.67;;
59876;SDS011;74472;51.140;17.184;2024-01-15T11:57:45;8.63;;;3.63;;
59876;SDS011;74472;51.140;17.184;2024-01-15T12:00:14;10.27;;;5.47;;
59876;SDS011;74472;51.140;17.184;2024-01-15T12:02:41;6.35;;;3.40;;
59876;SDS011;74472;51.140;17.184;2024-01-15T12:05:11;9.13;;;4.10;;
59876;SDS011;74472;51.140;17.184;2024-01-15T12:07:42;8.55;;;4.07;;
59876;SDS011;74472;51.140;17.184;2024-01-15T12:10:11;8.55;;;3.80;;
59876;SDS011;74472;51.140;17.184;2024-01-15T12:15:20;13.35;;;5.72;;
59876;SDS011;74472;51.140;17.184;2024-01-15T12:17:46;11.98;;;5.70;;
59876;SDS011;74472;51.140;17.184;2024-01-15T12:20:12;10.57;;;4.50;;
59876;SDS011;74472;51.140;17.184;2024-01-15T12:22:38;15.20;;;5.80;;
59876;SDS011;74472;51.140;17.184;2024-01-15T12:25:03;10.75;;;4.80;;
59876;SDS011;74472;51.140;17.184;2024-01-15T12:27:29;14.20;;;6.50;;
59876;SDS011;74472;51.140;17.184;2024-01-15T12:29:55;7.75;;;3.63;;
59876;SDS011;74472;51.140;17.184;2024-01-15T12:32:20;12.65;;;5.47;;
59876;SDS011;74472;51.140;17.184;2024-01-15T12:34:46;7.70;;;4.45;;
59876;SDS011;74472;51.140;17.184;2024-01-15T12:37:14;7.03;;;3.40;;
59876;SDS011;74472;51.140;17.184;2024-01-15T12:39:39;8.45;;;3.00;;
59876;SDS011;74472;51.140;17.184;2024-01-15T12:42:08;8.55;;;4.30;;
59876;SDS011;74472;51.140;17.184;2024-01-15T12:44:35;6.78;;;3.10;;
59876;SDS011;74472;51.140;17.184;2024-01-15T12:47:00;9.27;;;4.18;;
59876;SDS011;74472;51.140;17.184;2024-01-15T12:49:26;7.68;;;3.40;;
59876;SDS011;74472;51.140;17.184;2024-01-15T12:51:52;9.00;;;3.63;;
59876;SDS011;74472;51.140;17.184;2024-01-15T12:54:26;9.25;;;4.47;;
59876;SDS011;74472;51.140;17.184;2024-01-15T12:56:51;8.70;;;4.20;;
59876;SDS011;74472;51.140;17.184;2024-01-15T12:59:17;8.00;;;4.78;;
59876;SDS011;74472;51.140;17.184;2024-01-15T13:01:43;8.27;;;4.68;;
59876;SDS011;74472;51.140;17.184;2024-01-15T13:04:10;7.30;;;4.20;;
59876;SDS011;74472;51.140;17.184;2024-01-15T13:06:35;9.23;;;4.53;;
59876;SDS011;74472;51.140;17.184;2024-01-15T13:09:01;10.35;;;4.28;;
59876;SDS011;74472;51.140;17.184;2024-01-15T13:11:30;7.65;;;3.50;;
59876;SDS011;74472;51.140;17.184;2024-01-15T13:13:56;12.15;;;5.47;;
59876;SDS011;74472;51.140;17.184;2024-01-15T13:16:23;13.80;;;5.53;;
59876;SDS011;74472;51.140;17.184;2024-01-15T13:18:51;10.25;;;6.63;;
59876;SDS011;74472;51.140;17.184;2024-01-15T13:21:17;9.10;;;4.25;;
59876;SDS011;74472;51.140;17.184;2024-01-15T13:23:42;12.20;;;4.18;;
59876;SDS011;74472;51.140;17.184;2024-01-15T13:26:08;6.88;;;3.13;;
59876;SDS011;74472;51.140;17.184;2024-01-15T13:28:33;8.35;;;3.40;;
59876;SDS011;74472;51.140;17.184;2024-01-15T13:30:59;8.23;;;3.67;;
59876;SDS011;74472;51.140;17.184;2024-01-15T13:33:25;6.80;;;3.88;;
59876;SDS011;74472;51.140;17.184;2024-01-15T13:35:50;6.95;;;3.38;;
59876;SDS011;74472;51.140;17.184;2024-01-15T13:38:16;10.13;;;4.43;;
59876;SDS011;74472;51.140;17.184;2024-01-15T13:40:41;6.40;;;3.05;;
59876;SDS011;74472;51.140;17.184;2024-01-15T13:43:06;7.75;;;3.78;;
59876;SDS011;74472;51.140;17.184;2024-01-15T13:45:33;7.57;;;3.40;;
59876;SDS011;74472;51.140;17.184;2024-01-15T13:47:59;7.43;;;3.33;;
59876;SDS011;74472;51.140;17.184;2024-01-15T13:50:24;12.07;;;7.38;;
59876;SDS011;74472;51.140;17.184;2024-01-15T13:52:50;10.07;;;5.93;;
59876;SDS011;74472;51.140;17.184;2024-01-15T13:55:15;22.25;;;13.02;;
59876;SDS011;74472;51.140;17.184;2024-01-15T13:57:40;10.27;;;5.55;;
59876;SDS011;74472;51.140;17.184;2024-01-15T14:00:06;13.27;;;9.50;;
59876;SDS011;74472;51.140;17.184;2024-01-15T14:02:36;12.80;;;6.78;;
59876;SDS011;74472;51.140;17.184;2024-01-15T14:05:04;16.33;;;10.82;;
59876;SDS011;74472;51.140;17.184;2024-01-15T14:07:29;54.95;;;32.20;;
59876;SDS011;74472;51.140;17.184;2024-01-15T14:09:55;24.10;;;13.45;;
59876;SDS011;74472;51.140;17.184;2024-01-15T14:12:20;15.68;;;11.73;;
59876;SDS011;74472;51.140;17.184;2024-01-15T14:14:45;10.18;;;7.50;;
59876;SDS011;74472;51.140;17.184;2024-01-15T14:17:10;9.25;;;4.93;;
59876;SDS011;74472;51.140;17.184;2024-01-15T14:19:36;27.90;;;16.50;;
59876;SDS011;74472;51.140;17.184;2024-01-15T14:22:01;18.08;;;9.07;;
59876;SDS011;74472;51.140;17.184;2024-01-15T14:24:26;11.05;;;5.63;;
59876;SDS011;74472;51.140;17.184;2024-01-15T14:26:52;12.75;;;7.20;;
59876;SDS011;74472;51.140;17.184;2024-01-15T14:29:17;12.00;;;6.15;;
59876;SDS011;74472;51.140;17.184;2024-01-15T14:31:45;7.63;;;4.70;;
59876;SDS011;74472;51.140;17.184;2024-01-15T14:34:11;10.98;;;4.70;;
59876;SDS011;74472;51.140;17.184;2024-01-15T14:36:36;9.52;;;4.63;;
59876;SDS011;74472;51.140;17.184;2024-01-15T14:39:02;8.75;;;4.22;;
59876;SDS011;74472;51.140;17.184;2024-01-15T14:41:27;6.78;;;4.07;;
59876;SDS011;74472;51.140;17.184;2024-01-15T14:43:53;10.13;;;4.95;;
59876;SDS011;74472;51.140;17.184;2024-01-15T14:46:18;6.88;;;4.05;;
59876;SDS011;74472;51.140;17.184;2024-01-15T14:48:43;10.25;;;4.30;;
59876;SDS011;74472;51.140;17.184;2024-01-15T14:51:09;12.30;;;3.60;;
59876;SDS011;74472;51.140;17.184;2024-01-15T14:53:35;5.70;;;3.35;;